createdAt,value
2023-02-08T00:00:24.442Z,3.10
2023-02-08T00:02:51.608Z,3.10
2023-02-08T00:05:19.117Z,3.10
2023-02-08T00:07:46.185Z,3.10
2023-02-08T00:10:12.963Z,2.90
2023-02-08T00:12:39.647Z,3.00
2023-02-08T00:15:07.031Z,2.90
2023-02-08T00:17:33.718Z,2.90
2023-02-08T00:20:00.585Z,2.90
2023-02-08T00:22:27.610Z,2.80
2023-02-08T00:24:54.408Z,2.80
2023-02-08T00:27:21.169Z,2.80
2023-02-08T00:29:47.984Z,2.70
2023-02-08T00:32:14.752Z,2.80
2023-02-08T00:34:41.481Z,2.70
2023-02-08T00:37:08.445Z,2.70
2023-02-08T00:39:35.279Z,2.70
2023-02-08T00:42:02.063Z,2.70
2023-02-08T00:44:28.816Z,2.80
2023-02-08T00:46:55.713Z,2.80
2023-02-08T00:49:22.575Z,2.80
2023-02-08T00:51:49.651Z,2.70
2023-02-08T00:54:18.220Z,2.60
2023-02-08T00:56:45.264Z,2.60
2023-02-08T00:59:14.066Z,2.60
2023-02-08T01:01:41.457Z,2.60
2023-02-08T01:04:08.605Z,2.60
2023-02-08T01:06:35.281Z,2.60
2023-02-08T01:09:01.982Z,2.70
2023-02-08T01:11:28.783Z,2.70
2023-02-08T01:14:00.370Z,2.60
2023-02-08T01:16:30.542Z,2.60
2023-02-08T01:18:59.032Z,2.60
2023-02-08T01:21:32.097Z,2.60
2023-02-08T01:23:59.469Z,2.50
2023-02-08T01:26:26.894Z,2.40
2023-02-08T01:28:55.081Z,2.40
2023-02-08T01:31:29.239Z,2.40
2023-02-08T01:33:57.034Z,2.30
2023-02-08T01:36:24.769Z,2.30
2023-02-08T01:38:51.858Z,2.30
2023-02-08T01:41:22.144Z,2.30
2023-02-08T01:44:01.282Z,2.20
2023-02-08T01:46:29.163Z,2.30
2023-02-08T01:49:01.437Z,2.30
2023-02-08T01:51:34.141Z,2.20
2023-02-08T01:54:03.460Z,2.40
2023-02-08T01:56:35.847Z,2.40
2023-02-08T01:59:08.970Z,2.40
2023-02-08T02:01:37.897Z,2.50
2023-02-08T02:04:05.943Z,2.40
2023-02-08T02:06:37.382Z,2.50
2023-02-08T02:09:19.235Z,2.50
2023-02-08T02:11:46.001Z,2.60
2023-02-08T02:14:13.644Z,2.60
2023-02-08T02:16:40.480Z,2.60
2023-02-08T02:19:33.889Z,2.50
2023-02-08T02:22:13.150Z,2.40
2023-02-08T02:25:01.113Z,2.40
2023-02-08T02:27:38.155Z,2.40
2023-02-08T02:30:31.635Z,2.40
2023-02-08T02:33:16.524Z,2.30
2023-02-08T02:35:57.498Z,2.20
2023-02-08T02:38:42.988Z,2.10
2023-02-08T02:42:05.612Z,2.00
2023-02-08T02:44:45.570Z,2.00
2023-02-08T02:47:37.435Z,2.10
2023-02-08T02:50:19.936Z,2.00
2023-02-08T02:52:57.156Z,2.00
2023-02-08T02:55:28.163Z,1.90
2023-02-08T02:57:57.894Z,1.90
2023-02-08T03:00:27.887Z,1.90
2023-02-08T03:02:55.828Z,1.90
2023-02-08T03:05:22.797Z,1.90
2023-02-08T03:08:18.562Z,2.00
2023-02-08T03:10:48.390Z,2.10
2023-02-08T03:13:47.354Z,2.30
2023-02-08T03:16:44.923Z,2.40
2023-02-08T03:19:25.143Z,2.40
2023-02-08T03:22:03.973Z,2.30
2023-02-08T03:24:55.151Z,2.20
2023-02-08T03:27:31.823Z,2.20
2023-02-08T03:30:12.695Z,2.30
2023-02-08T03:32:59.817Z,2.50
2023-02-08T03:35:33.734Z,2.50
2023-02-08T03:38:05.628Z,2.40
2023-02-08T03:40:40.638Z,2.40
2023-02-08T03:43:23.369Z,2.40
2023-02-08T03:46:27.150Z,2.30
2023-02-08T03:49:02.515Z,2.20
2023-02-08T03:51:31.461Z,2.00
2023-02-08T03:54:00.535Z,1.90
2023-02-08T03:56:50.139Z,2.00
2023-02-08T03:59:25.032Z,2.00
2023-02-08T04:01:59.138Z,1.90
2023-02-08T04:04:28.063Z,1.80
2023-02-08T04:06:54.877Z,1.80
2023-02-08T04:09:21.703Z,1.80
2023-02-08T04:11:48.462Z,1.80
2023-02-08T04:14:15.296Z,1.80
2023-02-08T04:16:42.358Z,1.70
2023-02-08T04:19:09.094Z,1.60
2023-02-08T04:21:35.798Z,1.60
2023-02-08T04:24:05.816Z,1.70
2023-02-08T04:26:32.543Z,1.60
2023-02-08T04:28:59.296Z,1.60
2023-02-08T04:31:26.239Z,1.60
2023-02-08T04:33:53.173Z,1.60
2023-02-08T04:36:20.142Z,1.60
2023-02-08T04:38:46.883Z,1.70
2023-02-08T04:41:13.624Z,1.60
2023-02-08T04:43:40.417Z,1.70
2023-02-08T04:46:07.632Z,1.70
2023-02-08T04:48:34.331Z,1.80
2023-02-08T04:51:01.015Z,1.70
2023-02-08T04:53:27.821Z,1.60
2023-02-08T04:55:54.528Z,1.60
2023-02-08T04:58:21.661Z,1.70
2023-02-08T05:00:48.442Z,1.60
2023-02-08T05:03:15.539Z,1.60
2023-02-08T05:05:42.363Z,1.70
2023-02-08T05:08:09.289Z,1.60
2023-02-08T05:10:36.153Z,1.60
2023-02-08T05:13:03.054Z,1.40
2023-02-08T05:15:29.824Z,1.30
2023-02-08T05:17:56.675Z,1.30
2023-02-08T05:20:23.526Z,1.30
2023-02-08T05:22:50.358Z,1.20
2023-02-08T05:25:18.100Z,1.20
2023-02-08T05:27:45.118Z,1.20
2023-02-08T05:30:12.268Z,1.20
2023-02-08T05:32:39.094Z,1.20
2023-02-08T05:35:06.244Z,1.10
2023-02-08T05:37:33.052Z,1.20
2023-02-08T05:39:59.790Z,1.10
2023-02-08T05:42:27.187Z,1.10
2023-02-08T05:44:53.991Z,1.10
2023-02-08T05:47:20.665Z,1.20
2023-02-08T05:49:47.580Z,1.10
2023-02-08T05:52:14.264Z,1.10
2023-02-08T05:54:41.051Z,1.10
2023-02-08T05:57:07.886Z,1.00
2023-02-08T05:59:34.740Z,1.00
2023-02-08T06:02:02.192Z,1.00
2023-02-08T06:04:29.350Z,0.90
2023-02-08T06:06:56.061Z,0.90
2023-02-08T06:09:22.852Z,0.90
2023-02-08T06:11:49.982Z,0.80
2023-02-08T06:14:16.839Z,0.80
2023-02-08T06:16:43.608Z,0.80
2023-02-08T06:19:10.499Z,0.90
2023-02-08T06:21:37.173Z,1.00
2023-02-08T06:24:04.429Z,0.90
2023-02-08T06:26:31.198Z,0.80
2023-02-08T06:28:59.586Z,0.80
2023-02-08T06:31:26.637Z,0.80
2023-02-08T06:33:53.634Z,0.70
2023-02-08T06:36:20.362Z,0.70
2023-02-08T06:38:47.151Z,0.80
2023-02-08T06:41:14.041Z,0.70
2023-02-08T06:43:41.127Z,0.80
2023-02-08T06:46:08.771Z,0.90
2023-02-08T06:48:36.452Z,0.90
2023-02-08T06:51:03.651Z,0.90
2023-02-08T06:53:30.536Z,0.90
2023-02-08T06:55:57.575Z,1.00
2023-02-08T06:58:24.313Z,1.10
2023-02-08T07:00:51.142Z,1.10
2023-02-08T07:03:18.138Z,1.10
2023-02-08T07:05:58.677Z,1.20
2023-02-08T07:08:30.768Z,1.30
2023-02-08T07:10:57.478Z,1.40
2023-02-08T07:13:24.137Z,1.50
2023-02-08T07:15:50.933Z,1.50
2023-02-08T07:18:17.637Z,1.50
2023-02-08T07:20:44.537Z,1.60
2023-02-08T07:23:11.280Z,1.70
2023-02-08T07:25:37.977Z,1.80
2023-02-08T07:28:04.903Z,1.90
2023-02-08T07:30:31.945Z,2.10
2023-02-08T07:32:58.634Z,2.10
2023-02-08T07:35:25.355Z,2.20
2023-02-08T07:37:52.331Z,2.30
2023-02-08T07:40:19.067Z,2.40
2023-02-08T07:42:45.927Z,2.50
2023-02-08T07:45:12.746Z,2.70
2023-02-08T07:47:39.503Z,2.80
2023-02-08T07:50:06.686Z,2.70
2023-02-08T07:52:33.998Z,2.70
2023-02-08T07:55:00.747Z,2.80
2023-02-08T07:57:27.450Z,2.90
2023-02-08T07:59:54.370Z,3.10
2023-02-08T08:02:21.108Z,3.20
2023-02-08T08:04:47.954Z,3.30
2023-02-08T08:07:14.817Z,3.30
2023-02-08T08:09:41.646Z,3.40
2023-02-08T08:12:08.421Z,3.50
2023-02-08T08:14:35.200Z,3.60
2023-02-08T08:17:01.933Z,3.70
2023-02-08T08:19:28.762Z,3.70
2023-02-08T08:21:55.779Z,3.80
2023-02-08T08:24:22.505Z,3.80
2023-02-08T08:26:49.286Z,3.80
2023-02-08T08:29:16.078Z,3.90
2023-02-08T08:31:43.904Z,4.00
2023-02-08T08:34:10.733Z,4.00
2023-02-08T08:36:37.479Z,4.00
2023-02-08T08:39:04.331Z,4.10
2023-02-08T08:41:31.276Z,4.20
2023-02-08T08:43:58.081Z,4.20
2023-02-08T08:46:25.243Z,4.30
2023-02-08T08:48:52.730Z,4.30
2023-02-08T08:51:19.573Z,4.40
2023-02-08T08:53:46.578Z,4.40
2023-02-08T08:56:13.359Z,4.40
2023-02-08T08:58:40.230Z,4.50
2023-02-08T09:01:07.065Z,4.60
2023-02-08T09:03:33.849Z,4.60
2023-02-08T09:06:00.790Z,4.60
2023-02-08T09:08:27.483Z,4.70
2023-02-08T09:10:54.186Z,4.70
2023-02-08T09:13:21.779Z,4.80
2023-02-08T09:15:49.483Z,4.90
2023-02-08T09:18:16.644Z,4.90
2023-02-08T09:20:43.808Z,5.00
2023-02-08T09:23:11.150Z,4.90
2023-02-08T09:25:38.238Z,5.00
2023-02-08T09:28:05.225Z,5.00
2023-02-08T09:30:32.201Z,5.00
2023-02-08T09:32:58.994Z,5.10
2023-02-08T09:35:26.013Z,5.30
2023-02-08T09:37:55.413Z,5.20
2023-02-08T09:40:30.861Z,5.20
2023-02-08T09:43:10.196Z,5.30
2023-02-08T09:45:59.970Z,5.40
2023-02-08T09:48:34.507Z,5.40
2023-02-08T09:51:10.380Z,5.50
2023-02-08T09:53:44.047Z,5.50
2023-02-08T09:56:15.633Z,5.50
2023-02-08T09:58:49.784Z,5.50
2023-02-08T10:01:25.099Z,5.50
2023-02-08T10:04:22.159Z,5.60
2023-02-08T10:06:50.192Z,5.60
2023-02-08T10:09:26.917Z,5.60
2023-02-08T10:12:16.249Z,5.40
2023-02-08T10:14:55.237Z,5.50
2023-02-08T10:17:58.215Z,5.60
2023-02-08T10:20:25.023Z,5.60
2023-02-08T10:23:10.291Z,5.70
2023-02-08T10:26:04.300Z,5.80
2023-02-08T10:28:58.890Z,6.00
2023-02-08T10:31:44.421Z,6.20
2023-02-08T10:34:24.281Z,6.50
2023-02-08T10:36:51.307Z,6.50
2023-02-08T10:39:24.229Z,6.50
2023-02-08T10:41:51.474Z,6.70
2023-02-08T10:44:34.227Z,6.70
2023-02-08T10:47:09.144Z,6.90
2023-02-08T10:49:50.557Z,7.00
2023-02-08T10:52:17.428Z,7.20
2023-02-08T10:54:44.242Z,7.30
2023-02-08T10:57:23.632Z,7.30
2023-02-08T11:00:05.947Z,7.50
2023-02-08T11:02:35.941Z,7.50
2023-02-08T11:05:06.885Z,7.60
2023-02-08T11:07:36.335Z,7.70
2023-02-08T11:10:25.023Z,7.80
2023-02-08T11:12:57.410Z,8.20
2023-02-08T11:15:28.006Z,8.50
2023-02-08T11:18:05.731Z,8.80
2023-02-08T11:20:37.606Z,8.90
2023-02-08T11:23:17.117Z,9.50
2023-02-08T11:25:44.125Z,9.30
2023-02-08T11:28:31.259Z,10.80
2023-02-08T11:31:08.501Z,13.40
2023-02-08T11:33:36.844Z,15.30
2023-02-08T11:36:07.009Z,17.60
2023-02-08T11:38:36.733Z,19.70
2023-02-08T11:41:13.663Z,21.10
2023-02-08T11:43:40.965Z,22.10
2023-02-08T11:46:08.720Z,22.70
2023-02-08T11:48:43.720Z,22.60
2023-02-08T11:51:14.405Z,23.40
2023-02-08T11:53:46.864Z,24.40
2023-02-08T11:56:22.606Z,24.50
2023-02-08T11:59:12.479Z,24.00
2023-02-08T12:01:41.777Z,23.90
2023-02-08T12:04:14.547Z,23.70
2023-02-08T12:07:03.025Z,23.00
2023-02-08T12:10:17.596Z,22.40
2023-02-08T12:12:50.101Z,22.20
2023-02-08T12:15:30.595Z,21.70
2023-02-08T12:18:06.460Z,22.80
2023-02-08T12:20:40.803Z,22.70
2023-02-08T12:23:20.923Z,23.20
2023-02-08T12:26:19.752Z,22.80
2023-02-08T12:28:52.898Z,22.80
2023-02-08T12:31:37.714Z,22.50
2023-02-08T12:34:43.468Z,22.50
2023-02-08T12:37:54.770Z,22.60
2023-02-08T12:40:42.693Z,22.80
2023-02-08T12:43:14.068Z,23.20
2023-02-08T12:46:08.552Z,23.20
2023-02-08T12:48:45.094Z,23.40
2023-02-08T12:51:24.700Z,22.70
2023-02-08T12:54:00.660Z,22.20
2023-02-08T12:56:32.994Z,21.90
2023-02-08T12:59:13.081Z,22.50
2023-02-08T13:01:46.491Z,22.00
2023-02-08T13:04:33.160Z,22.60
2023-02-08T13:07:07.168Z,22.30
2023-02-08T13:09:35.514Z,22.80
2023-02-08T13:12:25.622Z,23.40
2023-02-08T13:14:56.022Z,23.60
2023-02-08T13:17:30.135Z,22.80
2023-02-08T13:20:13.984Z,22.50
2023-02-08T13:22:42.447Z,22.10
2023-02-08T13:25:23.636Z,22.20
2023-02-08T13:27:52.080Z,22.40
2023-02-08T13:30:20.661Z,22.10
2023-02-08T13:32:50.646Z,22.10
2023-02-08T13:35:31.548Z,21.30
2023-02-08T13:38:05.638Z,21.40
2023-02-08T13:40:35.133Z,21.40
2023-02-08T13:43:34.791Z,21.20
2023-02-08T13:46:03.862Z,21.30
2023-02-08T13:48:46.014Z,21.20
2023-02-08T13:51:31.209Z,21.20
2023-02-08T13:53:58.004Z,21.20
2023-02-08T13:56:49.691Z,21.40
2023-02-08T13:59:34.177Z,21.30
2023-02-08T14:02:14.458Z,22.00
2023-02-08T14:04:43.177Z,21.70
2023-02-08T14:07:09.925Z,22.00
2023-02-08T14:09:46.029Z,22.00
2023-02-08T14:12:46.901Z,21.40
2023-02-08T14:15:16.692Z,21.10
2023-02-08T14:18:04.678Z,20.70
2023-02-08T14:20:39.821Z,20.70
2023-02-08T14:23:27.487Z,20.10
2023-02-08T14:25:56.495Z,20.30
2023-02-08T14:28:40.383Z,20.00
2023-02-08T14:31:10.324Z,19.80
2023-02-08T14:33:49.478Z,20.10
2023-02-08T14:36:35.817Z,20.00
2023-02-08T14:39:24.344Z,19.90
2023-02-08T14:41:54.954Z,20.10
2023-02-08T14:44:41.597Z,20.00
2023-02-08T14:47:13.041Z,19.40
2023-02-08T14:49:44.836Z,18.10
2023-02-08T14:52:19.314Z,16.80
2023-02-08T14:54:58.244Z,15.00
2023-02-08T14:57:34.336Z,14.10
2023-02-08T15:00:07.478Z,13.00
2023-02-08T15:02:39.290Z,12.20
2023-02-08T15:05:10.384Z,11.60
2023-02-08T15:08:03.832Z,11.20
2023-02-08T15:10:33.065Z,10.90
2023-02-08T15:13:06.399Z,10.60
2023-02-08T15:15:34.933Z,10.30
2023-02-08T15:18:04.075Z,10.20
2023-02-08T15:20:33.847Z,10.10
2023-02-08T15:23:03.642Z,10.00
2023-02-08T15:25:36.472Z,9.80
2023-02-08T15:28:25.456Z,9.40
2023-02-08T15:31:09.311Z,9.30
2023-02-08T15:33:39.387Z,9.10
2023-02-08T15:36:14.270Z,9.10
2023-02-08T15:38:44.899Z,9.10
2023-02-08T15:41:23.684Z,9.00
2023-02-08T15:43:50.565Z,8.90
2023-02-08T15:46:22.515Z,8.80
2023-02-08T15:48:50.772Z,8.60
2023-02-08T15:51:20.463Z,8.50
2023-02-08T15:53:50.452Z,8.70
2023-02-08T15:56:35.740Z,8.60
2023-02-08T15:59:04.552Z,8.40
2023-02-08T16:01:32.236Z,8.30
2023-02-08T16:04:05.985Z,8.20
2023-02-08T16:06:44.860Z,8.10
2023-02-08T16:09:21.369Z,8.10
2023-02-08T16:11:50.081Z,7.90
2023-02-08T16:14:21.751Z,7.90
2023-02-08T16:16:54.294Z,7.80
2023-02-08T16:19:29.760Z,7.60
2023-02-08T16:22:21.071Z,7.50
2023-02-08T16:24:50.846Z,7.50
2023-02-08T16:27:28.829Z,7.40
2023-02-08T16:29:55.937Z,7.30
2023-02-08T16:32:30.912Z,7.20
2023-02-08T16:34:58.089Z,7.30
2023-02-08T16:37:35.384Z,7.10
2023-02-08T16:40:07.982Z,7.00
2023-02-08T16:42:42.728Z,6.90
2023-02-08T16:45:09.656Z,6.90
2023-02-08T16:47:48.492Z,6.80
2023-02-08T16:50:24.591Z,6.80
2023-02-08T16:52:56.169Z,6.80
2023-02-08T16:55:28.613Z,6.90
2023-02-08T16:57:57.166Z,6.80
2023-02-08T17:00:32.673Z,6.80
2023-02-08T17:02:59.783Z,6.70
2023-02-08T17:05:38.090Z,6.60
2023-02-08T17:08:09.999Z,6.60
2023-02-08T17:10:37.250Z,6.60
2023-02-08T17:13:19.424Z,6.60
2023-02-08T17:15:49.739Z,6.60
2023-02-08T17:18:16.764Z,6.60
2023-02-08T17:20:43.740Z,6.60
2023-02-08T17:23:11.665Z,6.60
2023-02-08T17:25:38.788Z,6.60
2023-02-08T17:28:14.277Z,6.70
2023-02-08T17:30:41.940Z,6.70
2023-02-08T17:33:11.762Z,6.70
2023-02-08T17:35:38.558Z,6.60
2023-02-08T17:38:05.964Z,6.70
2023-02-08T17:40:34.877Z,6.60
2023-02-08T17:43:03.070Z,6.60
2023-02-08T17:45:30.232Z,6.80
2023-02-08T17:48:00.307Z,6.80
2023-02-08T17:50:27.536Z,6.60
2023-02-08T17:52:55.267Z,6.60
2023-02-08T17:55:22.353Z,6.80
2023-02-08T17:57:49.178Z,6.70
2023-02-08T18:00:18.650Z,6.60
2023-02-08T18:02:51.568Z,6.60
2023-02-08T18:05:21.241Z,6.60
2023-02-08T18:07:47.924Z,6.60
2023-02-08T18:10:15.873Z,6.40
2023-02-08T18:12:43.070Z,6.30
2023-02-08T18:15:12.817Z,6.30
2023-02-08T18:17:40.587Z,6.40
2023-02-08T18:20:08.855Z,6.50
2023-02-08T18:22:36.994Z,6.40
2023-02-08T18:25:05.093Z,6.40
2023-02-08T18:27:31.885Z,6.30
2023-02-08T18:29:58.729Z,6.20
2023-02-08T18:32:28.196Z,6.20
2023-02-08T18:34:55.968Z,6.20
2023-02-08T18:37:23.243Z,6.20
2023-02-08T18:39:51.222Z,6.20
2023-02-08T18:42:18.327Z,6.20
2023-02-08T18:44:45.531Z,6.10
2023-02-08T18:47:12.321Z,6.20
2023-02-08T18:49:40.964Z,6.20
2023-02-08T18:52:13.462Z,5.90
2023-02-08T18:54:40.481Z,5.90
2023-02-08T18:57:10.570Z,5.80
2023-02-08T18:59:38.745Z,5.80
2023-02-08T19:02:07.359Z,5.90
2023-02-08T19:04:40.508Z,5.80
2023-02-08T19:07:08.071Z,5.70
2023-02-08T19:09:36.377Z,5.70
2023-02-08T19:12:03.987Z,5.60
2023-02-08T19:14:30.892Z,5.60
2023-02-08T19:16:57.759Z,5.80
2023-02-08T19:19:24.593Z,5.80
2023-02-08T19:21:51.451Z,5.80
2023-02-08T19:24:19.680Z,5.80
2023-02-08T19:26:47.146Z,5.90
2023-02-08T19:29:15.790Z,5.80
2023-02-08T19:31:43.318Z,5.80
2023-02-08T19:34:10.705Z,5.70
2023-02-08T19:36:41.841Z,5.60
2023-02-08T19:39:08.768Z,5.50
2023-02-08T19:41:38.217Z,5.50
2023-02-08T19:44:06.701Z,5.50
2023-02-08T19:46:35.536Z,5.70
2023-02-08T19:49:02.470Z,5.80
2023-02-08T19:51:34.584Z,5.70
2023-02-08T19:54:03.298Z,5.60
2023-02-08T19:56:36.277Z,5.50
2023-02-08T19:59:05.147Z,5.50
2023-02-08T20:01:34.242Z,5.60
2023-02-08T20:04:02.089Z,5.50
2023-02-08T20:06:32.573Z,5.50
2023-02-08T20:09:00.541Z,5.60
2023-02-08T20:11:30.471Z,5.60
2023-02-08T20:13:59.912Z,5.70
2023-02-08T20:16:30.464Z,5.50
2023-02-08T20:18:58.601Z,5.50
2023-02-08T20:21:25.606Z,5.40
2023-02-08T20:23:52.812Z,5.40
2023-02-08T20:26:25.113Z,5.40
2023-02-08T20:28:57.868Z,5.40
2023-02-08T20:31:29.338Z,5.40
2023-02-08T20:34:03.265Z,5.40
2023-02-08T20:36:33.283Z,5.40
2023-02-08T20:39:00.234Z,5.40
2023-02-08T20:41:30.422Z,5.30
2023-02-08T20:43:57.160Z,5.30
2023-02-08T20:46:26.765Z,5.20
2023-02-08T20:48:56.169Z,5.10
2023-02-08T20:51:23.979Z,5.30
2023-02-08T20:53:50.796Z,5.10
2023-02-08T20:56:23.454Z,5.20
2023-02-08T20:58:50.299Z,5.20
2023-02-08T21:01:20.015Z,5.30
2023-02-08T21:03:47.039Z,5.20
2023-02-08T21:06:18.068Z,5.00
2023-02-08T21:08:45.505Z,5.00
2023-02-08T21:11:12.972Z,5.10
2023-02-08T21:13:39.755Z,5.20
2023-02-08T21:16:08.381Z,5.30
2023-02-08T21:18:36.138Z,5.30
2023-02-08T21:21:04.234Z,5.20
2023-02-08T21:23:31.020Z,5.20
2023-02-08T21:26:02.136Z,5.00
2023-02-08T21:28:29.066Z,4.80
2023-02-08T21:31:01.210Z,4.80
2023-02-08T21:33:28.515Z,4.90
2023-02-08T21:35:55.435Z,4.90
2023-02-08T21:38:22.570Z,4.70
2023-02-08T21:40:49.355Z,4.60
2023-02-08T21:43:16.067Z,4.50
2023-02-08T21:45:42.950Z,4.60
2023-02-08T21:48:09.875Z,4.60
2023-02-08T21:50:57.224Z,4.60
2023-02-08T21:53:42.735Z,4.60
2023-02-08T21:56:10.300Z,4.40
2023-02-08T21:58:37.096Z,4.30
2023-02-08T22:01:05.910Z,4.30
2023-02-08T22:03:34.370Z,4.30
2023-02-08T22:06:01.482Z,4.30
2023-02-08T22:08:28.400Z,4.20
2023-02-08T22:10:58.302Z,4.20
2023-02-08T22:13:25.659Z,4.30
2023-02-08T22:15:52.664Z,4.20
2023-02-08T22:18:19.528Z,4.20
2023-02-08T22:20:46.518Z,4.10
2023-02-08T22:23:13.536Z,4.00
2023-02-08T22:25:40.382Z,3.80
2023-02-08T22:28:08.265Z,3.90
2023-02-08T22:30:35.199Z,3.90
2023-02-08T22:33:02.033Z,3.90
2023-02-08T22:35:28.778Z,3.80
2023-02-08T22:37:55.637Z,3.70
2023-02-08T22:40:22.481Z,3.60
2023-02-08T22:42:49.158Z,3.60
2023-02-08T22:45:15.955Z,3.50
2023-02-08T22:47:42.636Z,3.50
2023-02-08T22:50:10.399Z,3.60
2023-02-08T22:52:37.361Z,3.60
2023-02-08T22:55:04.960Z,3.50
2023-02-08T22:57:32.721Z,3.60
2023-02-08T23:00:00.080Z,3.70
2023-02-08T23:02:27.034Z,3.60
2023-02-08T23:04:53.928Z,3.60
2023-02-08T23:07:20.889Z,3.50
2023-02-08T23:09:47.693Z,3.40
2023-02-08T23:12:14.616Z,3.30
2023-02-08T23:14:41.393Z,3.30
2023-02-08T23:17:08.243Z,3.40
2023-02-08T23:19:34.988Z,3.30
2023-02-08T23:22:01.848Z,3.30
2023-02-08T23:24:28.682Z,3.20
2023-02-08T23:26:55.504Z,3.10
2023-02-08T23:29:22.593Z,3.20
2023-02-08T23:31:49.501Z,3.20
2023-02-08T23:34:16.658Z,3.20
2023-02-08T23:36:43.765Z,3.10
2023-02-08T23:39:10.703Z,3.10
2023-02-08T23:41:37.441Z,3.00
2023-02-08T23:44:04.456Z,3.00
2023-02-08T23:46:31.603Z,3.10
2023-02-08T23:48:58.546Z,3.00
2023-02-08T23:51:25.802Z,3.00
2023-02-08T23:53:53.939Z,3.00
2023-02-08T23:56:26.887Z,3.10
2023-02-08T23:58:58.405Z,3.30
